createdAt,value
2022-07-31T00:00:43.782Z,1.92
2022-07-31T00:01:45.422Z,2.22
2022-07-31T00:02:48.046Z,1.95
2022-07-31T00:03:49.981Z,1.80
2022-07-31T00:04:52.623Z,1.85
2022-07-31T00:05:54.218Z,2.70
2022-07-31T00:06:57.143Z,1.75
2022-07-31T00:08:00.110Z,2.00
2022-07-31T00:09:01.731Z,2.17
2022-07-31T00:10:04.759Z,1.95
2022-07-31T00:11:06.424Z,2.92
2022-07-31T00:12:09.128Z,2.00
2022-07-31T00:13:13.253Z,3.10
2022-07-31T00:14:16.240Z,3.45
2022-07-31T00:15:19.545Z,3.40
2022-07-31T00:16:21.244Z,3.55
2022-07-31T00:17:23.831Z,3.90
2022-07-31T00:18:25.423Z,3.80
2022-07-31T00:19:27.983Z,3.50
2022-07-31T00:20:29.672Z,3.03
2022-07-31T00:21:32.263Z,3.35
2022-07-31T00:22:33.846Z,3.58
2022-07-31T00:23:36.389Z,3.70
2022-07-31T00:24:38.071Z,3.22
2022-07-31T00:25:40.610Z,3.13
2022-07-31T00:26:42.203Z,2.80
2022-07-31T00:27:44.778Z,3.17
2022-07-31T00:28:47.750Z,2.78
2022-07-31T00:29:51.991Z,2.65
2022-07-31T00:30:53.598Z,2.55
2022-07-31T00:31:56.720Z,2.70
2022-07-31T00:32:58.378Z,2.70
2022-07-31T00:34:00.954Z,2.92
2022-07-31T00:35:02.818Z,2.47
2022-07-31T00:36:05.914Z,2.35
2022-07-31T00:37:07.565Z,2.30
2022-07-31T00:38:27.478Z,2.25
2022-07-31T00:39:32.516Z,2.47
2022-07-31T00:40:34.329Z,2.25
2022-07-31T00:41:41.030Z,2.33
2022-07-31T00:42:43.211Z,2.22
2022-07-31T00:43:45.754Z,2.10
2022-07-31T00:44:48.447Z,1.95
2022-07-31T00:45:59.047Z,2.03
2022-07-31T00:47:02.240Z,2.20
2022-07-31T00:48:06.559Z,2.42
2022-07-31T00:49:14.718Z,2.03
2022-07-31T00:50:16.430Z,2.10
2022-07-31T00:51:18.982Z,2.58
2022-07-31T00:52:20.659Z,2.08
2022-07-31T00:53:23.250Z,2.22
2022-07-31T00:54:24.894Z,2.25
2022-07-31T00:55:27.456Z,1.85
2022-07-31T00:56:29.216Z,1.90
2022-07-31T00:57:31.827Z,2.00
2022-07-31T00:58:33.452Z,2.47
2022-07-31T00:59:36.073Z,2.17
2022-07-31T01:00:37.676Z,2.53
2022-07-31T01:01:41.600Z,2.15
2022-07-31T01:02:46.297Z,2.55
2022-07-31T01:03:49.621Z,2.75
2022-07-31T01:04:51.345Z,2.22
2022-07-31T01:05:53.957Z,2.53
2022-07-31T01:06:55.908Z,2.28
2022-07-31T01:07:58.565Z,2.20
2022-07-31T01:09:00.135Z,2.05
2022-07-31T01:10:07.281Z,2.38
2022-07-31T01:11:12.919Z,2.20
2022-07-31T01:12:19.328Z,2.10
2022-07-31T01:13:31.311Z,2.60
2022-07-31T01:14:38.452Z,2.85
2022-07-31T01:15:40.846Z,2.75
2022-07-31T01:16:48.162Z,2.60
2022-07-31T01:17:50.858Z,2.67
2022-07-31T01:18:55.821Z,2.30
2022-07-31T01:19:57.947Z,2.08
2022-07-31T01:21:04.452Z,2.33
2022-07-31T01:22:33.384Z,2.53
2022-07-31T01:23:54.872Z,2.17
2022-07-31T01:25:05.828Z,2.83
2022-07-31T01:26:19.560Z,2.30
2022-07-31T01:27:28.806Z,2.63
2022-07-31T01:28:51.332Z,2.42
2022-07-31T01:29:56.590Z,2.70
2022-07-31T01:31:25.625Z,2.10
2022-07-31T01:32:27.885Z,2.10
2022-07-31T01:33:33.193Z,2.22
2022-07-31T01:34:39.350Z,2.10
2022-07-31T01:35:42.682Z,2.20
2022-07-31T01:36:49.708Z,2.10
2022-07-31T01:37:53.958Z,2.38
2022-07-31T01:38:57.772Z,2.20
2022-07-31T01:40:02.204Z,2.65
2022-07-31T01:41:08.541Z,1.75
2022-07-31T01:42:12.200Z,2.05
2022-07-31T01:43:20.611Z,2.30
2022-07-31T01:44:25.355Z,2.42
2022-07-31T01:45:28.707Z,2.15
2022-07-31T01:46:30.932Z,1.98
2022-07-31T01:47:41.233Z,2.25
2022-07-31T01:48:43.131Z,2.13
2022-07-31T01:49:46.839Z,2.20
2022-07-31T01:50:49.968Z,2.20
2022-07-31T01:51:53.757Z,2.17
2022-07-31T01:52:57.752Z,2.17
2022-07-31T01:54:01.442Z,2.03
2022-07-31T01:55:05.195Z,2.00
2022-07-31T01:56:07.415Z,2.40
2022-07-31T01:57:11.076Z,2.50
2022-07-31T01:58:21.080Z,2.42
2022-07-31T01:59:25.580Z,2.20
2022-07-31T02:00:34.197Z,2.28
2022-07-31T02:01:39.445Z,2.00
2022-07-31T02:02:43.236Z,2.40
2022-07-31T02:03:47.405Z,2.38
2022-07-31T02:04:53.681Z,2.20
2022-07-31T02:05:57.427Z,2.40
2022-07-31T02:07:01.329Z,2.20
2022-07-31T02:08:03.632Z,2.03
2022-07-31T02:09:06.396Z,2.20
2022-07-31T02:10:10.348Z,2.33
2022-07-31T02:11:14.335Z,2.80
2022-07-31T02:12:16.991Z,2.47
2022-07-31T02:13:34.950Z,2.20
2022-07-31T02:14:40.559Z,3.70
2022-07-31T02:15:42.605Z,2.75
2022-07-31T02:16:46.145Z,2.30
2022-07-31T02:17:48.880Z,2.00
2022-07-31T02:18:53.860Z,2.70
2022-07-31T02:20:00.093Z,2.50
2022-07-31T02:21:03.311Z,1.80
2022-07-31T02:22:05.482Z,2.42
2022-07-31T02:23:08.430Z,2.53
2022-07-31T02:24:10.452Z,2.60
2022-07-31T02:25:13.461Z,2.30
2022-07-31T02:26:15.794Z,2.78
2022-07-31T02:27:57.320Z,2.40
2022-07-31T02:28:42.434Z,1.98
2022-07-31T02:29:46.622Z,2.65
2022-07-31T02:30:48.852Z,2.20
2022-07-31T02:32:02.889Z,2.75
2022-07-31T02:33:07.654Z,2.55
2022-07-31T02:34:10.727Z,2.35
2022-07-31T02:35:13.325Z,2.45
2022-07-31T02:36:18.860Z,2.40
2022-07-31T02:37:20.428Z,2.25
2022-07-31T02:38:26.130Z,2.53
2022-07-31T02:39:30.616Z,1.73
2022-07-31T02:40:33.513Z,2.20
2022-07-31T02:41:35.375Z,2.58
2022-07-31T02:42:38.006Z,2.55
2022-07-31T02:43:40.132Z,2.67
2022-07-31T02:44:42.692Z,2.47
2022-07-31T02:45:46.135Z,2.00
2022-07-31T02:46:49.063Z,2.30
2022-07-31T02:47:51.086Z,2.40
2022-07-31T02:48:53.860Z,2.45
2022-07-31T02:49:57.892Z,2.50
2022-07-31T02:51:00.646Z,2.40
2022-07-31T02:52:04.502Z,2.67
2022-07-31T02:53:07.877Z,2.80
2022-07-31T02:54:10.710Z,2.47
2022-07-31T02:55:14.248Z,2.42
2022-07-31T02:56:17.667Z,2.30
2022-07-31T02:57:19.303Z,2.38
2022-07-31T02:58:21.902Z,2.92
2022-07-31T02:59:23.841Z,2.50
2022-07-31T03:00:27.808Z,2.47
2022-07-31T03:01:35.355Z,2.40
2022-07-31T03:02:38.054Z,2.70
2022-07-31T03:03:40.757Z,2.20
2022-07-31T03:04:42.467Z,2.90
2022-07-31T03:05:45.087Z,2.03
2022-07-31T03:06:48.518Z,2.45
2022-07-31T03:07:51.143Z,2.80
2022-07-31T03:08:52.744Z,2.40
2022-07-31T03:09:55.891Z,2.72
2022-07-31T03:10:57.799Z,2.42
2022-07-31T03:12:04.348Z,2.67
2022-07-31T03:13:06.870Z,2.35
2022-07-31T03:14:10.391Z,2.13
2022-07-31T03:15:15.158Z,2.17
2022-07-31T03:16:18.175Z,2.33
2022-07-31T03:17:21.495Z,2.38
2022-07-31T03:18:25.062Z,2.03
2022-07-31T03:19:27.662Z,2.15
2022-07-31T03:20:30.920Z,2.67
2022-07-31T03:21:35.777Z,2.83
2022-07-31T03:22:39.706Z,2.40
2022-07-31T03:23:42.477Z,2.47
2022-07-31T03:24:44.336Z,2.30
2022-07-31T03:25:47.311Z,2.17
2022-07-31T03:26:48.957Z,2.45
2022-07-31T03:27:55.411Z,2.80
2022-07-31T03:28:59.743Z,2.40
2022-07-31T03:30:02.442Z,2.33
2022-07-31T03:31:04.467Z,2.60
2022-07-31T03:32:07.937Z,2.80
2022-07-31T03:33:11.428Z,2.60
2022-07-31T03:34:14.325Z,2.65
2022-07-31T03:35:16.078Z,2.30
2022-07-31T03:36:18.937Z,2.55
2022-07-31T03:37:21.513Z,2.47
2022-07-31T03:38:41.042Z,2.35
2022-07-31T03:39:45.197Z,2.58
2022-07-31T03:40:47.001Z,2.50
2022-07-31T03:41:50.846Z,2.45
2022-07-31T03:42:53.037Z,2.60
2022-07-31T03:43:55.667Z,2.58
2022-07-31T03:44:57.347Z,2.45
2022-07-31T03:46:00.706Z,3.10
2022-07-31T03:47:02.651Z,3.30
2022-07-31T03:48:06.306Z,3.03
2022-07-31T03:49:09.459Z,2.90
2022-07-31T03:50:15.521Z,2.80
2022-07-31T03:51:17.382Z,2.88
2022-07-31T03:52:20.055Z,2.90
2022-07-31T03:53:22.249Z,3.10
2022-07-31T03:54:24.875Z,2.95
2022-07-31T03:55:26.710Z,2.95
2022-07-31T03:56:29.710Z,2.72
2022-07-31T03:57:34.323Z,2.80
2022-07-31T03:58:38.682Z,2.88
2022-07-31T03:59:48.492Z,3.30
2022-07-31T04:00:51.480Z,3.58
2022-07-31T04:01:58.167Z,2.97
2022-07-31T04:03:06.729Z,3.22
2022-07-31T04:04:11.913Z,2.78
2022-07-31T04:05:15.103Z,3.03
2022-07-31T04:06:16.729Z,3.30
2022-07-31T04:07:19.462Z,3.10
2022-07-31T04:08:21.103Z,2.95
2022-07-31T04:09:23.673Z,3.10
2022-07-31T04:10:25.506Z,3.00
2022-07-31T04:11:28.150Z,2.67
2022-07-31T04:12:29.769Z,2.75
2022-07-31T04:13:32.684Z,2.47
2022-07-31T04:14:34.319Z,2.70
2022-07-31T04:15:36.900Z,2.50
2022-07-31T04:16:38.507Z,2.75
2022-07-31T04:17:41.056Z,2.95
2022-07-31T04:18:42.655Z,2.50
2022-07-31T04:19:54.808Z,2.80
2022-07-31T04:20:56.364Z,3.70
2022-07-31T04:21:58.994Z,3.17
2022-07-31T04:23:01.577Z,2.70
2022-07-31T04:24:03.912Z,2.75
2022-07-31T04:25:07.438Z,2.80
2022-07-31T04:26:08.995Z,2.55
2022-07-31T04:27:22.401Z,2.72
2022-07-31T04:28:24.640Z,2.70
2022-07-31T04:29:28.593Z,2.65
2022-07-31T04:30:31.175Z,2.55
2022-07-31T04:31:32.772Z,2.50
2022-07-31T04:32:35.337Z,2.63
2022-07-31T04:33:48.881Z,2.70
2022-07-31T04:34:54.433Z,4.25
2022-07-31T04:35:56.047Z,3.13
2022-07-31T04:36:58.833Z,2.80
2022-07-31T04:38:01.051Z,3.08
2022-07-31T04:39:03.708Z,3.00
2022-07-31T04:40:06.197Z,2.80
2022-07-31T04:41:10.663Z,3.05
2022-07-31T04:42:12.979Z,2.95
2022-07-31T04:43:16.856Z,2.92
2022-07-31T04:44:18.446Z,2.95
2022-07-31T04:45:21.034Z,2.63
2022-07-31T04:46:22.618Z,2.45
2022-07-31T04:47:25.227Z,2.63
2022-07-31T04:48:26.813Z,3.45
2022-07-31T04:49:30.690Z,2.72
2022-07-31T04:50:33.674Z,2.70
2022-07-31T04:51:36.231Z,2.60
2022-07-31T04:52:38.782Z,2.85
2022-07-31T04:53:40.347Z,3.03
2022-07-31T04:54:42.950Z,2.50
2022-07-31T04:56:04.569Z,2.60
2022-07-31T04:57:07.128Z,2.70
2022-07-31T04:58:08.761Z,2.78
2022-07-31T04:59:13.750Z,2.47
2022-07-31T05:00:15.789Z,2.80
2022-07-31T05:01:18.409Z,2.65
2022-07-31T05:02:20.018Z,2.60
2022-07-31T05:03:22.607Z,2.40
2022-07-31T05:04:24.228Z,3.13
2022-07-31T05:05:26.756Z,2.40
2022-07-31T05:06:37.954Z,2.50
2022-07-31T05:07:40.502Z,2.63
2022-07-31T05:08:42.129Z,2.70
2022-07-31T05:09:44.689Z,3.10
2022-07-31T05:11:05.122Z,2.30
2022-07-31T05:12:08.205Z,2.45
2022-07-31T05:13:09.843Z,2.45
2022-07-31T05:14:13.750Z,2.45
2022-07-31T05:15:17.167Z,2.80
2022-07-31T05:16:20.530Z,2.97
2022-07-31T05:17:22.205Z,2.78
2022-07-31T05:18:24.792Z,2.50
2022-07-31T05:19:29.738Z,2.28
2022-07-31T05:20:32.364Z,2.65
2022-07-31T05:21:34.158Z,2.22
2022-07-31T05:22:53.638Z,2.60
2022-07-31T05:23:55.313Z,2.60
2022-07-31T05:24:57.961Z,2.38
2022-07-31T05:25:59.581Z,2.92
2022-07-31T05:27:02.360Z,2.20
2022-07-31T05:28:04.367Z,2.58
2022-07-31T05:29:12.450Z,2.58
2022-07-31T05:30:14.180Z,2.38
2022-07-31T05:31:17.735Z,2.35
2022-07-31T05:32:20.335Z,2.70
2022-07-31T05:33:21.944Z,2.60
2022-07-31T05:34:24.726Z,2.40
2022-07-31T05:35:26.565Z,2.20
2022-07-31T05:36:29.258Z,2.38
2022-07-31T05:37:30.853Z,2.55
2022-07-31T05:38:35.105Z,2.15
2022-07-31T05:39:37.713Z,2.58
2022-07-31T05:40:39.329Z,2.30
2022-07-31T05:41:41.930Z,2.40
2022-07-31T05:42:44.805Z,2.60
2022-07-31T05:43:47.387Z,2.30
2022-07-31T05:44:49.013Z,2.33
2022-07-31T05:45:51.684Z,2.05
2022-07-31T05:47:54.814Z,2.15
2022-07-31T05:48:57.500Z,2.53
2022-07-31T05:49:59.211Z,2.22
2022-07-31T05:51:05.469Z,2.25
2022-07-31T05:52:08.434Z,2.20
2022-07-31T05:53:11.955Z,2.38
2022-07-31T05:54:15.983Z,2.60
2022-07-31T05:55:17.614Z,2.10
2022-07-31T05:56:20.266Z,2.45
2022-07-31T05:57:33.255Z,2.60
2022-07-31T05:58:36.926Z,2.53
2022-07-31T05:59:38.519Z,2.40
2022-07-31T06:00:41.651Z,2.30
2022-07-31T06:01:44.363Z,2.05
2022-07-31T06:02:45.999Z,2.13
2022-07-31T06:03:52.245Z,2.53
2022-07-31T06:04:54.149Z,2.22
2022-07-31T06:05:56.854Z,2.08
2022-07-31T06:06:58.478Z,2.30
2022-07-31T06:08:01.886Z,2.33
2022-07-31T06:09:05.150Z,2.20
2022-07-31T06:10:09.034Z,2.13
2022-07-31T06:11:12.168Z,2.40
2022-07-31T06:12:13.801Z,2.55
2022-07-31T06:13:16.413Z,2.30
2022-07-31T06:14:18.040Z,2.60
2022-07-31T06:15:20.652Z,2.47
2022-07-31T06:16:23.218Z,2.38
2022-07-31T06:17:29.038Z,2.60
2022-07-31T06:18:46.824Z,2.30
2022-07-31T06:19:48.446Z,2.10
2022-07-31T06:20:51.034Z,2.50
2022-07-31T06:21:54.012Z,2.42
2022-07-31T06:22:56.905Z,3.05
2022-07-31T06:23:58.505Z,2.00
2022-07-31T06:25:01.098Z,2.15
2022-07-31T06:26:04.325Z,2.20
2022-07-31T06:27:07.519Z,2.58
2022-07-31T06:28:15.349Z,2.30
2022-07-31T06:29:20.017Z,2.20
2022-07-31T06:30:42.958Z,2.17
2022-07-31T06:31:44.507Z,2.15
2022-07-31T06:32:47.067Z,2.13
2022-07-31T06:33:49.630Z,2.38
2022-07-31T06:34:52.549Z,2.53
2022-07-31T06:35:55.130Z,2.42
2022-07-31T06:36:56.689Z,1.90
2022-07-31T06:37:59.276Z,2.60
2022-07-31T06:39:00.839Z,2.70
2022-07-31T06:40:03.495Z,2.38
2022-07-31T06:41:06.461Z,2.55
2022-07-31T06:42:09.058Z,2.22
2022-07-31T06:43:12.327Z,2.53
2022-07-31T06:44:14.094Z,2.20
2022-07-31T06:45:35.458Z,2.58
2022-07-31T06:46:38.227Z,2.38
2022-07-31T06:47:52.155Z,2.80
2022-07-31T06:48:53.778Z,2.15
2022-07-31T06:49:56.621Z,2.42
2022-07-31T06:52:20.953Z,2.28
2022-07-31T06:53:22.530Z,2.30
2022-07-31T06:54:26.758Z,2.60
2022-07-31T06:55:29.031Z,2.85
2022-07-31T06:56:33.220Z,2.30
2022-07-31T06:57:35.952Z,2.60
2022-07-31T06:58:38.626Z,2.63
2022-07-31T06:59:40.895Z,2.75
2022-07-31T07:00:43.525Z,2.67
2022-07-31T07:01:45.100Z,3.00
2022-07-31T07:02:47.697Z,2.80
2022-07-31T07:03:49.300Z,2.45
2022-07-31T07:05:05.164Z,3.00
2022-07-31T07:06:09.031Z,2.83
2022-07-31T07:07:12.193Z,2.55
2022-07-31T07:08:13.784Z,2.50
2022-07-31T07:09:16.313Z,2.80
2022-07-31T07:10:18.962Z,3.03
2022-07-31T07:11:21.028Z,2.72
2022-07-31T07:12:24.910Z,2.50
2022-07-31T07:13:45.695Z,2.60
2022-07-31T07:14:49.311Z,2.55
2022-07-31T07:15:50.940Z,3.20
2022-07-31T07:16:53.564Z,2.53
2022-07-31T07:17:55.162Z,2.75
2022-07-31T07:18:57.784Z,2.88
2022-07-31T07:19:59.472Z,3.17
2022-07-31T07:21:02.343Z,2.38
2022-07-31T07:22:05.386Z,2.70
2022-07-31T07:23:07.743Z,2.88
2022-07-31T07:24:11.686Z,4.55
2022-07-31T07:25:13.464Z,2.88
2022-07-31T07:26:16.042Z,2.67
2022-07-31T07:27:17.712Z,2.90
2022-07-31T07:28:30.412Z,2.83
2022-07-31T07:29:32.955Z,2.78
2022-07-31T07:30:35.826Z,2.58
2022-07-31T07:31:37.840Z,2.75
2022-07-31T07:32:40.389Z,3.03
2022-07-31T07:33:42.901Z,3.50
2022-07-31T07:34:45.738Z,3.10
2022-07-31T07:35:47.366Z,3.10
2022-07-31T07:36:49.939Z,3.33
2022-07-31T07:37:51.726Z,2.70
2022-07-31T07:38:56.815Z,3.67
2022-07-31T07:40:03.564Z,3.53
2022-07-31T07:41:05.735Z,3.05
2022-07-31T07:42:08.615Z,2.45
2022-07-31T07:43:10.394Z,2.90
2022-07-31T07:44:14.462Z,3.13
2022-07-31T07:45:16.231Z,3.20
2022-07-31T07:46:18.830Z,2.90
2022-07-31T07:47:20.424Z,3.35
2022-07-31T07:48:22.997Z,3.30
2022-07-31T07:49:25.653Z,3.63
2022-07-31T07:50:29.242Z,3.38
2022-07-31T07:51:32.214Z,3.42
2022-07-31T07:52:34.074Z,3.08
2022-07-31T07:53:36.843Z,3.60
2022-07-31T07:54:38.479Z,2.90
2022-07-31T07:55:41.073Z,3.33
2022-07-31T07:56:45.164Z,3.20
2022-07-31T07:57:47.730Z,3.15
2022-07-31T07:58:49.404Z,3.17
2022-07-31T07:59:53.390Z,3.28
2022-07-31T08:00:55.408Z,2.80
2022-07-31T08:01:58.059Z,3.00
2022-07-31T08:03:47.108Z,3.33
2022-07-31T08:04:22.442Z,3.13
2022-07-31T08:05:24.052Z,3.30
2022-07-31T08:06:26.608Z,3.17
2022-07-31T08:07:42.081Z,3.00
2022-07-31T08:08:45.582Z,2.80
2022-07-31T08:09:47.263Z,3.20
2022-07-31T08:10:49.930Z,3.20
2022-07-31T08:11:52.552Z,3.00
2022-07-31T08:12:54.738Z,3.38
2022-07-31T08:13:57.336Z,3.42
2022-07-31T08:15:00.464Z,3.08
2022-07-31T08:16:03.117Z,3.40
2022-07-31T08:17:04.794Z,3.20
2022-07-31T08:18:07.518Z,3.55
2022-07-31T08:19:09.107Z,3.25
2022-07-31T08:20:12.246Z,3.00
2022-07-31T08:21:14.217Z,4.15
2022-07-31T08:22:16.778Z,3.20
2022-07-31T08:23:18.418Z,4.15
2022-07-31T08:24:21.078Z,3.38
2022-07-31T08:25:22.707Z,3.45
2022-07-31T08:26:27.359Z,3.60
2022-07-31T08:27:39.922Z,2.90
2022-07-31T08:28:49.894Z,2.90
2022-07-31T08:29:52.542Z,2.90
2022-07-31T08:30:57.161Z,3.13
2022-07-31T08:31:58.744Z,3.42
2022-07-31T08:33:01.263Z,3.15
2022-07-31T08:34:03.823Z,3.80
2022-07-31T08:35:06.259Z,3.40
2022-07-31T08:36:09.667Z,3.80
2022-07-31T08:37:52.512Z,4.38
2022-07-31T08:38:34.731Z,3.08
2022-07-31T08:39:36.903Z,2.85
2022-07-31T08:40:43.574Z,2.90
2022-07-31T08:41:46.463Z,3.63
2022-07-31T08:42:48.138Z,4.28
2022-07-31T08:44:00.397Z,3.38
2022-07-31T08:45:06.568Z,3.00
2022-07-31T08:46:13.765Z,3.10
2022-07-31T08:47:16.149Z,4.07
2022-07-31T08:48:19.367Z,3.13
2022-07-31T08:49:26.025Z,3.80
2022-07-31T08:50:29.799Z,3.47
2022-07-31T08:51:32.677Z,3.22
2022-07-31T08:52:55.068Z,3.33
2022-07-31T08:53:56.941Z,3.67
2022-07-31T08:55:00.902Z,3.20
2022-07-31T08:56:03.540Z,3.50
2022-07-31T08:57:06.355Z,4.22
2022-07-31T08:58:15.557Z,2.92
2022-07-31T08:59:17.439Z,3.55
2022-07-31T09:00:22.622Z,3.17
2022-07-31T09:01:25.603Z,3.25
2022-07-31T09:02:28.200Z,2.78
2022-07-31T09:03:30.043Z,3.17
2022-07-31T09:04:32.856Z,4.40
2022-07-31T09:05:41.959Z,3.00
2022-07-31T09:06:45.424Z,3.53
2022-07-31T09:07:46.968Z,3.33
2022-07-31T09:08:49.492Z,2.90
2022-07-31T09:09:52.387Z,3.63
2022-07-31T09:11:03.509Z,3.20
2022-07-31T09:12:08.211Z,3.28
2022-07-31T09:13:14.914Z,3.83
2022-07-31T09:14:25.506Z,3.33
2022-07-31T09:15:30.274Z,3.42
2022-07-31T09:16:44.665Z,3.67
2022-07-31T09:17:53.795Z,3.63
2022-07-31T09:18:57.706Z,3.53
2022-07-31T09:19:59.712Z,3.28
2022-07-31T09:21:04.261Z,3.75
2022-07-31T09:22:10.095Z,3.25
2022-07-31T09:23:13.212Z,4.53
2022-07-31T09:24:26.603Z,4.40
2022-07-31T09:25:29.307Z,3.72
2022-07-31T09:26:33.247Z,4.38
2022-07-31T09:27:35.828Z,4.80
2022-07-31T09:28:40.632Z,3.40
2022-07-31T09:29:44.275Z,3.92
2022-07-31T09:30:56.128Z,4.82
2022-07-31T09:32:09.229Z,4.25
2022-07-31T09:33:16.657Z,4.38
2022-07-31T09:34:26.170Z,3.90
2022-07-31T09:35:31.473Z,4.22
2022-07-31T09:36:33.169Z,3.90
2022-07-31T09:37:36.019Z,6.65
2022-07-31T09:38:40.925Z,5.10
2022-07-31T09:39:52.580Z,3.30
2022-07-31T09:40:57.804Z,3.47
2022-07-31T09:42:10.462Z,3.42
2022-07-31T09:43:24.450Z,4.50
2022-07-31T09:44:35.677Z,3.90
2022-07-31T09:45:47.861Z,4.53
2022-07-31T09:46:51.426Z,4.07
2022-07-31T09:48:14.373Z,3.63
2022-07-31T09:49:19.797Z,4.00
2022-07-31T09:50:24.852Z,3.63
2022-07-31T09:51:27.706Z,3.58
2022-07-31T09:52:31.574Z,3.00
2022-07-31T09:53:43.529Z,2.67
2022-07-31T09:54:45.457Z,3.28
2022-07-31T09:55:50.980Z,3.33
2022-07-31T09:56:52.740Z,3.20
2022-07-31T09:57:57.506Z,3.72
2022-07-31T09:58:59.754Z,3.35
2022-07-31T10:00:02.642Z,3.10
2022-07-31T10:01:06.020Z,2.97
2022-07-31T10:02:09.010Z,3.10
2022-07-31T10:03:14.972Z,3.47
2022-07-31T10:04:17.842Z,3.00
2022-07-31T10:05:21.253Z,3.25
2022-07-31T10:06:23.236Z,3.85
2022-07-31T10:07:32.318Z,3.30
2022-07-31T10:08:36.263Z,2.75
2022-07-31T10:09:41.038Z,3.25
2022-07-31T10:10:44.127Z,3.42
2022-07-31T10:11:47.686Z,3.70
2022-07-31T10:12:52.470Z,2.78
2022-07-31T10:13:56.958Z,3.35
2022-07-31T10:15:05.738Z,3.65
2022-07-31T10:16:07.523Z,3.28
2022-07-31T10:17:10.917Z,3.25
2022-07-31T10:18:15.934Z,3.38
2022-07-31T10:19:19.758Z,3.40
2022-07-31T10:20:24.274Z,3.78
2022-07-31T10:21:30.743Z,3.38
2022-07-31T10:22:36.221Z,3.20
2022-07-31T10:23:41.909Z,3.08
2022-07-31T10:24:47.884Z,3.15
2022-07-31T10:25:53.791Z,3.15
2022-07-31T10:27:00.879Z,3.63
2022-07-31T10:28:04.369Z,3.47
2022-07-31T10:29:06.041Z,2.92
2022-07-31T10:30:10.850Z,3.35
2022-07-31T10:31:13.693Z,2.90
2022-07-31T10:32:15.353Z,3.08
2022-07-31T10:33:42.430Z,3.50
2022-07-31T10:34:42.593Z,3.55
2022-07-31T10:35:55.658Z,3.40
2022-07-31T10:37:04.892Z,2.80
2022-07-31T10:38:16.012Z,3.28
2022-07-31T10:39:35.355Z,3.65
2022-07-31T10:40:43.018Z,2.63
2022-07-31T10:41:48.535Z,3.00
2022-07-31T10:42:53.897Z,3.22
2022-07-31T10:43:58.985Z,2.85
2022-07-31T10:45:07.464Z,3.17
2022-07-31T10:46:12.099Z,3.17
2022-07-31T10:47:14.127Z,3.30
2022-07-31T10:48:17.122Z,3.00
2022-07-31T10:49:20.151Z,3.10
2022-07-31T10:50:23.718Z,3.13
2022-07-31T10:51:26.562Z,3.13
2022-07-31T10:52:30.499Z,2.95
2022-07-31T10:53:50.224Z,3.22
2022-07-31T10:54:54.669Z,3.05
2022-07-31T10:56:00.739Z,3.05
2022-07-31T10:57:03.749Z,2.70
2022-07-31T10:58:10.861Z,3.40
2022-07-31T10:59:13.023Z,2.80
2022-07-31T11:00:18.370Z,3.13
2022-07-31T11:01:20.427Z,2.80
2022-07-31T11:02:30.506Z,2.60
2022-07-31T11:03:38.914Z,3.13
2022-07-31T11:04:42.800Z,2.90
2022-07-31T11:06:01.315Z,2.72
2022-07-31T11:07:15.554Z,2.38
2022-07-31T11:08:17.125Z,2.60
2022-07-31T11:09:23.134Z,3.00
2022-07-31T11:10:26.031Z,2.50
2022-07-31T11:11:36.703Z,2.65
2022-07-31T11:12:38.295Z,2.92
2022-07-31T11:13:48.464Z,3.25
2022-07-31T11:14:51.066Z,2.50
2022-07-31T11:16:03.122Z,2.83
2022-07-31T11:17:06.765Z,2.50
2022-07-31T11:18:25.331Z,2.80
2022-07-31T11:19:41.107Z,2.75
2022-07-31T11:20:47.921Z,2.70
2022-07-31T11:21:49.541Z,2.55
2022-07-31T11:22:57.317Z,2.88
2022-07-31T11:24:04.264Z,2.97
2022-07-31T11:25:13.504Z,2.90
2022-07-31T11:26:18.266Z,2.55
2022-07-31T11:27:35.296Z,2.78
2022-07-31T11:28:37.948Z,2.58
2022-07-31T11:30:01.030Z,3.10
2022-07-31T11:31:04.205Z,2.72
2022-07-31T11:32:14.072Z,2.53
2022-07-31T11:33:16.697Z,3.53
2022-07-31T11:34:18.317Z,2.90
2022-07-31T11:35:28.975Z,4.45
2022-07-31T11:36:31.991Z,2.63
2022-07-31T11:37:46.311Z,2.72
2022-07-31T11:38:57.527Z,2.90
2022-07-31T11:39:59.383Z,2.45
2022-07-31T11:41:02.586Z,2.80
2022-07-31T11:42:07.720Z,2.50
2022-07-31T11:43:25.606Z,3.33
2022-07-31T11:44:28.786Z,3.17
2022-07-31T11:45:33.350Z,3.00
2022-07-31T11:46:37.944Z,3.60
2022-07-31T11:48:11.879Z,3.35
2022-07-31T11:49:02.983Z,3.17
2022-07-31T11:50:05.247Z,3.15
2022-07-31T11:51:07.816Z,2.63
2022-07-31T11:52:30.733Z,3.22
2022-07-31T11:53:41.610Z,2.72
2022-07-31T11:54:43.453Z,3.15
2022-07-31T11:55:47.865Z,2.90
2022-07-31T11:56:52.323Z,4.47
2022-07-31T11:57:54.937Z,3.10
2022-07-31T11:58:58.768Z,2.53
2022-07-31T12:00:26.498Z,3.20
2022-07-31T12:01:30.499Z,2.95
2022-07-31T12:02:32.262Z,3.45
2022-07-31T12:03:36.757Z,3.75
2022-07-31T12:04:38.943Z,3.30
2022-07-31T12:05:45.091Z,4.50
2022-07-31T12:06:47.772Z,3.45
2022-07-31T12:07:51.962Z,3.40
2022-07-31T12:08:54.803Z,3.90
2022-07-31T12:10:00.879Z,4.97
2022-07-31T12:11:07.581Z,5.60
2022-07-31T12:12:11.869Z,4.60
2022-07-31T12:13:17.004Z,4.15
2022-07-31T12:14:27.943Z,3.40
2022-07-31T12:15:33.700Z,4.75
2022-07-31T12:16:40.622Z,4.93
2022-07-31T12:17:43.218Z,3.63
2022-07-31T12:18:50.514Z,4.05
2022-07-31T12:19:57.468Z,4.93
2022-07-31T12:21:02.134Z,3.63
2022-07-31T12:22:13.194Z,3.70
2022-07-31T12:23:40.765Z,5.22
2022-07-31T12:24:40.229Z,4.65
2022-07-31T12:25:43.392Z,4.50
2022-07-31T12:26:52.040Z,3.72
2022-07-31T12:27:54.044Z,4.03
2022-07-31T12:29:01.082Z,3.60
2022-07-31T12:30:13.613Z,3.85
2022-07-31T12:31:16.209Z,4.10
2022-07-31T12:32:25.412Z,3.63
2022-07-31T12:33:29.330Z,3.90
2022-07-31T12:34:32.313Z,4.38
2022-07-31T12:35:56.130Z,3.85
2022-07-31T12:37:04.418Z,4.18
2022-07-31T12:38:23.970Z,3.95
2022-07-31T12:39:54.097Z,3.65
2022-07-31T12:41:05.339Z,3.80
2022-07-31T12:42:07.138Z,3.83
2022-07-31T12:43:09.792Z,4.47
2022-07-31T12:44:13.372Z,4.72
2022-07-31T12:45:19.435Z,4.32
2022-07-31T12:46:22.726Z,3.92
2022-07-31T12:47:26.871Z,3.80
2022-07-31T12:48:28.832Z,3.88
2022-07-31T12:49:31.662Z,4.40
2022-07-31T12:50:34.104Z,3.63
2022-07-31T12:51:44.825Z,4.55
2022-07-31T12:52:48.374Z,4.10
2022-07-31T12:53:50.978Z,4.25
2022-07-31T12:54:54.239Z,4.30
2022-07-31T12:55:56.941Z,3.70
2022-07-31T12:56:58.587Z,4.20
2022-07-31T12:58:01.221Z,3.83
2022-07-31T12:59:02.902Z,3.95
2022-07-31T13:00:07.042Z,4.35
2022-07-31T13:01:08.732Z,3.80
2022-07-31T13:02:11.724Z,4.03
2022-07-31T13:03:14.489Z,4.10
2022-07-31T13:04:18.550Z,4.43
2022-07-31T13:05:22.778Z,3.92
2022-07-31T13:06:24.464Z,3.47
2022-07-31T13:07:27.164Z,4.60
2022-07-31T13:08:29.908Z,3.75
2022-07-31T13:09:35.749Z,3.83
2022-07-31T13:10:39.112Z,3.97
2022-07-31T13:11:46.022Z,3.50
2022-07-31T13:12:50.438Z,3.83
2022-07-31T13:13:56.738Z,3.50
2022-07-31T13:14:58.400Z,3.83
2022-07-31T13:16:00.951Z,3.45
2022-07-31T13:17:02.770Z,3.55
2022-07-31T13:18:06.078Z,4.03
2022-07-31T13:19:07.920Z,3.33
2022-07-31T13:20:11.805Z,2.72
2022-07-31T13:21:18.860Z,3.45
2022-07-31T13:22:21.489Z,3.15
2022-07-31T13:23:23.333Z,2.88
2022-07-31T13:24:26.587Z,3.30
2022-07-31T13:25:30.213Z,3.90
2022-07-31T13:26:34.343Z,3.10
2022-07-31T13:27:36.048Z,3.30
2022-07-31T13:28:38.802Z,3.28
2022-07-31T13:29:40.410Z,2.92
2022-07-31T13:30:42.954Z,2.72
2022-07-31T13:31:44.651Z,3.58
2022-07-31T13:32:47.243Z,3.42
2022-07-31T13:33:48.821Z,3.28
2022-07-31T13:35:26.325Z,3.15
2022-07-31T13:36:14.316Z,3.20
2022-07-31T13:37:15.921Z,3.75
2022-07-31T13:38:18.622Z,2.90
2022-07-31T13:39:20.285Z,3.15
2022-07-31T13:40:43.721Z,2.88
2022-07-31T13:41:46.681Z,3.15
2022-07-31T13:42:49.239Z,3.08
2022-07-31T13:44:00.328Z,3.28
2022-07-31T13:45:07.963Z,2.95
2022-07-31T13:46:10.124Z,3.25
2022-07-31T13:47:12.829Z,3.47
2022-07-31T13:48:14.401Z,2.53
2022-07-31T13:49:17.001Z,2.95
2022-07-31T13:50:18.889Z,3.00
2022-07-31T13:51:24.010Z,3.13
2022-07-31T13:52:31.489Z,2.65
2022-07-31T13:53:33.330Z,2.97
2022-07-31T13:54:35.898Z,2.60
2022-07-31T13:55:37.912Z,2.75
2022-07-31T13:56:43.521Z,2.90
2022-07-31T13:57:47.760Z,3.20
2022-07-31T13:58:49.380Z,2.67
2022-07-31T13:59:52.040Z,3.08
2022-07-31T14:00:54.040Z,3.08
2022-07-31T14:02:03.661Z,3.00
2022-07-31T14:03:07.146Z,3.10
2022-07-31T14:04:14.069Z,2.95
2022-07-31T14:05:20.792Z,3.03
2022-07-31T14:06:24.379Z,2.90
2022-07-31T14:07:47.951Z,3.20
2022-07-31T14:08:50.650Z,2.67
2022-07-31T14:09:55.446Z,2.90
2022-07-31T14:10:58.331Z,2.88
2022-07-31T14:11:59.924Z,2.80
2022-07-31T14:13:08.724Z,3.10
2022-07-31T14:14:10.771Z,2.92
2022-07-31T14:15:13.520Z,3.00
2022-07-31T14:16:15.226Z,2.80
2022-07-31T14:17:17.780Z,2.70
2022-07-31T14:18:19.382Z,2.92
2022-07-31T14:19:21.961Z,3.03
2022-07-31T14:20:23.677Z,3.13
2022-07-31T14:21:26.255Z,3.15
2022-07-31T14:22:29.103Z,2.95
2022-07-31T14:23:33.312Z,2.97
2022-07-31T14:24:40.346Z,2.90